sensor_id;sensor_type;location;lat;lon;timestamp;P1;durP1;ratioP1;P2;durP2;ratioP2
43142;SDS011;28750;59.842;17.584;2023-08-08T00:01:35;4.20;;;2.10;;
43142;SDS011;28750;59.842;17.584;2023-08-08T00:04:02;6.47;;;2.10;;
43142;SDS011;28750;59.842;17.584;2023-08-08T00:06:30;3.85;;;2.10;;
43142;SDS011;28750;59.842;17.584;2023-08-08T00:08:57;3.13;;;2.03;;
43142;SDS011;28750;59.842;17.584;2023-08-08T00:11:24;5.28;;;1.98;;
43142;SDS011;28750;59.842;17.584;2023-08-08T00:13:51;8.45;;;2.05;;
43142;SDS011;28750;59.842;17.584;2023-08-08T00:16:19;4.38;;;2.17;;
43142;SDS011;28750;59.842;17.584;2023-08-08T00:18:46;6.53;;;2.80;;
43142;SDS011;28750;59.842;17.584;2023-08-08T00:21:14;2.55;;;1.70;;
43142;SDS011;28750;59.842;17.584;2023-08-08T00:23:42;5.40;;;2.08;;
43142;SDS011;28750;59.842;17.584;2023-08-08T00:26:09;4.18;;;1.85;;
43142;SDS011;28750;59.842;17.584;2023-08-08T00:28:36;6.75;;;2.20;;
43142;SDS011;28750;59.842;17.584;2023-08-08T00:31:03;8.32;;;2.30;;
43142;SDS011;28750;59.842;17.584;2023-08-08T00:33:30;2.70;;;1.55;;
43142;SDS011;28750;59.842;17.584;2023-08-08T00:35:57;3.53;;;1.70;;
43142;SDS011;28750;59.842;17.584;2023-08-08T00:38:24;6.30;;;2.40;;
43142;SDS011;28750;59.842;17.584;2023-08-08T00:40:52;4.07;;;1.85;;
43142;SDS011;28750;59.842;17.584;2023-08-08T00:43:19;4.22;;;1.70;;
43142;SDS011;28750;59.842;17.584;2023-08-08T00:45:46;8.98;;;1.98;;
43142;SDS011;28750;59.842;17.584;2023-08-08T00:48:13;5.85;;;2.20;;
43142;SDS011;28750;59.842;17.584;2023-08-08T00:50:42;2.75;;;1.70;;
43142;SDS011;28750;59.842;17.584;2023-08-08T00:53:10;5.35;;;1.75;;
43142;SDS011;28750;59.842;17.584;2023-08-08T00:55:38;1.83;;;1.50;;
43142;SDS011;28750;59.842;17.584;2023-08-08T00:58:05;4.78;;;1.67;;
43142;SDS011;28750;59.842;17.584;2023-08-08T01:00:32;11.48;;;2.15;;
43142;SDS011;28750;59.842;17.584;2023-08-08T01:03:00;3.70;;;1.58;;
43142;SDS011;28750;59.842;17.584;2023-08-08T01:05:28;5.25;;;1.60;;
43142;SDS011;28750;59.842;17.584;2023-08-08T01:08:05;5.35;;;1.60;;
43142;SDS011;28750;59.842;17.584;2023-08-08T01:10:37;5.53;;;1.10;;
43142;SDS011;28750;59.842;17.584;2023-08-08T01:13:10;4.38;;;1.67;;
43142;SDS011;28750;59.842;17.584;2023-08-08T01:15:44;2.80;;;2.25;;
43142;SDS011;28750;59.842;17.584;2023-08-08T01:18:12;2.40;;;1.40;;
43142;SDS011;28750;59.842;17.584;2023-08-08T01:20:40;5.13;;;1.42;;
43142;SDS011;28750;59.842;17.584;2023-08-08T01:25:55;3.05;;;1.20;;
43142;SDS011;28750;59.842;17.584;2023-08-08T01:28:24;2.08;;;1.30;;
43142;SDS011;28750;59.842;17.584;2023-08-08T01:30:52;4.90;;;1.67;;
43142;SDS011;28750;59.842;17.584;2023-08-08T01:33:19;3.83;;;1.70;;
43142;SDS011;28750;59.842;17.584;2023-08-08T01:35:48;5.28;;;1.65;;
43142;SDS011;28750;59.842;17.584;2023-08-08T01:38:21;2.67;;;1.55;;
43142;SDS011;28750;59.842;17.584;2023-08-08T01:40:53;6.10;;;1.52;;
43142;SDS011;28750;59.842;17.584;2023-08-08T01:43:23;3.65;;;1.60;;
43142;SDS011;28750;59.842;17.584;2023-08-08T01:45:51;2.13;;;1.30;;
43142;SDS011;28750;59.842;17.584;2023-08-08T01:48:19;2.75;;;1.20;;
43142;SDS011;28750;59.842;17.584;2023-08-08T01:50:46;3.42;;;1.30;;
43142;SDS011;28750;59.842;17.584;2023-08-08T01:53:13;3.25;;;1.05;;
43142;SDS011;28750;59.842;17.584;2023-08-08T01:55:40;4.78;;;1.50;;
43142;SDS011;28750;59.842;17.584;2023-08-08T01:58:07;3.03;;;1.00;;
43142;SDS011;28750;59.842;17.584;2023-08-08T02:00:34;6.80;;;1.35;;
43142;SDS011;28750;59.842;17.584;2023-08-08T02:03:01;3.58;;;1.75;;
43142;SDS011;28750;59.842;17.584;2023-08-08T02:05:29;3.70;;;1.20;;
43142;SDS011;28750;59.842;17.584;2023-08-08T02:07:56;2.83;;;1.35;;
43142;SDS011;28750;59.842;17.584;2023-08-08T02:10:23;3.35;;;1.38;;
43142;SDS011;28750;59.842;17.584;2023-08-08T02:12:50;3.92;;;1.02;;
43142;SDS011;28750;59.842;17.584;2023-08-08T02:15:17;4.93;;;1.17;;
43142;SDS011;28750;59.842;17.584;2023-08-08T02:17:45;3.15;;;1.45;;
43142;SDS011;28750;59.842;17.584;2023-08-08T02:20:12;3.17;;;1.05;;
43142;SDS011;28750;59.842;17.584;2023-08-08T02:22:39;6.35;;;1.70;;
43142;SDS011;28750;59.842;17.584;2023-08-08T02:25:07;5.78;;;1.20;;
43142;SDS011;28750;59.842;17.584;2023-08-08T02:27:34;5.60;;;1.48;;
43142;SDS011;28750;59.842;17.584;2023-08-08T02:30:01;4.85;;;1.20;;
43142;SDS011;28750;59.842;17.584;2023-08-08T02:32:29;5.45;;;1.10;;
43142;SDS011;28750;59.842;17.584;2023-08-08T02:34:56;6.13;;;1.17;;
43142;SDS011;28750;59.842;17.584;2023-08-08T02:37:23;3.33;;;1.27;;
43142;SDS011;28750;59.842;17.584;2023-08-08T02:39:50;2.55;;;1.40;;
43142;SDS011;28750;59.842;17.584;2023-08-08T02:42:18;6.05;;;1.40;;
43142;SDS011;28750;59.842;17.584;2023-08-08T02:44:45;4.15;;;1.30;;
43142;SDS011;28750;59.842;17.584;2023-08-08T02:47:12;2.95;;;1.40;;
43142;SDS011;28750;59.842;17.584;2023-08-08T02:49:39;4.72;;;1.65;;
43142;SDS011;28750;59.842;17.584;2023-08-08T02:52:06;2.80;;;1.50;;
43142;SDS011;28750;59.842;17.584;2023-08-08T02:54:33;3.85;;;1.33;;
43142;SDS011;28750;59.842;17.584;2023-08-08T02:57:01;3.60;;;1.55;;
43142;SDS011;28750;59.842;17.584;2023-08-08T02:59:28;2.85;;;1.55;;
43142;SDS011;28750;59.842;17.584;2023-08-08T03:01:55;7.22;;;1.67;;
43142;SDS011;28750;59.842;17.584;2023-08-08T03:04:22;3.20;;;1.73;;
43142;SDS011;28750;59.842;17.584;2023-08-08T03:06:49;2.58;;;1.60;;
43142;SDS011;28750;59.842;17.584;2023-08-08T03:09:16;2.88;;;1.58;;
43142;SDS011;28750;59.842;17.584;2023-08-08T03:11:43;4.57;;;1.85;;
43142;SDS011;28750;59.842;17.584;2023-08-08T03:14:10;3.72;;;1.70;;
43142;SDS011;28750;59.842;17.584;2023-08-08T03:16:37;6.88;;;1.70;;
43142;SDS011;28750;59.842;17.584;2023-08-08T03:19:04;2.50;;;1.65;;
43142;SDS011;28750;59.842;17.584;2023-08-08T03:21:31;5.55;;;1.65;;
43142;SDS011;28750;59.842;17.584;2023-08-08T03:23:58;3.47;;;1.90;;
43142;SDS011;28750;59.842;17.584;2023-08-08T03:26:25;2.42;;;1.40;;
43142;SDS011;28750;59.842;17.584;2023-08-08T03:28:53;4.35;;;1.75;;
43142;SDS011;28750;59.842;17.584;2023-08-08T03:31:20;3.50;;;1.40;;
43142;SDS011;28750;59.842;17.584;2023-08-08T03:33:48;2.58;;;1.40;;
43142;SDS011;28750;59.842;17.584;2023-08-08T03:36:16;5.55;;;3.05;;
43142;SDS011;28750;59.842;17.584;2023-08-08T03:38:43;5.25;;;1.50;;
43142;SDS011;28750;59.842;17.584;2023-08-08T03:41:11;4.45;;;1.80;;
43142;SDS011;28750;59.842;17.584;2023-08-08T03:43:39;3.40;;;1.85;;
43142;SDS011;28750;59.842;17.584;2023-08-08T03:46:07;6.03;;;1.85;;
43142;SDS011;28750;59.842;17.584;2023-08-08T03:48:36;7.35;;;2.22;;
43142;SDS011;28750;59.842;17.584;2023-08-08T03:51:04;9.90;;;2.70;;
43142;SDS011;28750;59.842;17.584;2023-08-08T03:53:32;3.67;;;1.80;;
43142;SDS011;28750;59.842;17.584;2023-08-08T03:55:59;7.78;;;1.65;;
43142;SDS011;28750;59.842;17.584;2023-08-08T03:58:26;4.57;;;1.60;;
43142;SDS011;28750;59.842;17.584;2023-08-08T04:00:53;4.53;;;1.63;;
43142;SDS011;28750;59.842;17.584;2023-08-08T04:03:21;3.40;;;1.90;;
43142;SDS011;28750;59.842;17.584;2023-08-08T04:05:49;4.97;;;1.83;;
43142;SDS011;28750;59.842;17.584;2023-08-08T04:08:16;9.73;;;2.58;;
43142;SDS011;28750;59.842;17.584;2023-08-08T04:10:43;5.05;;;1.80;;
43142;SDS011;28750;59.842;17.584;2023-08-08T04:13:13;5.25;;;1.98;;
43142;SDS011;28750;59.842;17.584;2023-08-08T04:15:40;4.47;;;1.80;;
43142;SDS011;28750;59.842;17.584;2023-08-08T04:18:07;6.63;;;2.53;;
43142;SDS011;28750;59.842;17.584;2023-08-08T04:20:34;4.38;;;2.00;;
43142;SDS011;28750;59.842;17.584;2023-08-08T04:23:01;3.67;;;1.88;;
43142;SDS011;28750;59.842;17.584;2023-08-08T04:25:28;4.60;;;2.00;;
43142;SDS011;28750;59.842;17.584;2023-08-08T04:27:56;2.45;;;1.90;;
43142;SDS011;28750;59.842;17.584;2023-08-08T04:30:23;2.10;;;1.85;;
43142;SDS011;28750;59.842;17.584;2023-08-08T04:32:50;4.88;;;2.30;;
43142;SDS011;28750;59.842;17.584;2023-08-08T04:35:17;3.28;;;1.90;;
43142;SDS011;28750;59.842;17.584;2023-08-08T04:37:44;3.90;;;1.80;;
43142;SDS011;28750;59.842;17.584;2023-08-08T04:40:11;5.45;;;2.22;;
43142;SDS011;28750;59.842;17.584;2023-08-08T04:42:38;12.65;;;3.55;;
43142;SDS011;28750;59.842;17.584;2023-08-08T04:45:06;8.45;;;2.70;;
43142;SDS011;28750;59.842;17.584;2023-08-08T04:47:33;3.38;;;2.35;;
43142;SDS011;28750;59.842;17.584;2023-08-08T04:50:00;4.00;;;2.88;;
43142;SDS011;28750;59.842;17.584;2023-08-08T04:52:27;4.78;;;2.60;;
43142;SDS011;28750;59.842;17.584;2023-08-08T04:54:54;4.90;;;2.30;;
43142;SDS011;28750;59.842;17.584;2023-08-08T04:57:21;3.95;;;2.85;;
43142;SDS011;28750;59.842;17.584;2023-08-08T04:59:48;3.83;;;2.50;;
43142;SDS011;28750;59.842;17.584;2023-08-08T05:02:16;5.97;;;2.67;;
43142;SDS011;28750;59.842;17.584;2023-08-08T05:04:43;4.13;;;2.65;;
43142;SDS011;28750;59.842;17.584;2023-08-08T05:07:10;5.05;;;3.63;;
43142;SDS011;28750;59.842;17.584;2023-08-08T05:09:37;6.55;;;2.47;;
43142;SDS011;28750;59.842;17.584;2023-08-08T05:12:05;5.53;;;2.72;;
43142;SDS011;28750;59.842;17.584;2023-08-08T05:14:32;6.55;;;2.30;;
43142;SDS011;28750;59.842;17.584;2023-08-08T05:17:01;4.50;;;2.22;;
43142;SDS011;28750;59.842;17.584;2023-08-08T05:19:29;3.28;;;2.45;;
43142;SDS011;28750;59.842;17.584;2023-08-08T05:21:56;5.18;;;2.45;;
43142;SDS011;28750;59.842;17.584;2023-08-08T05:24:23;4.00;;;2.33;;
43142;SDS011;28750;59.842;17.584;2023-08-08T05:26:50;4.68;;;2.22;;
43142;SDS011;28750;59.842;17.584;2023-08-08T05:29:18;3.53;;;2.20;;
43142;SDS011;28750;59.842;17.584;2023-08-08T05:31:46;4.90;;;2.22;;
43142;SDS011;28750;59.842;17.584;2023-08-08T05:34:14;2.83;;;2.47;;
43142;SDS011;28750;59.842;17.584;2023-08-08T05:36:41;4.57;;;2.53;;
43142;SDS011;28750;59.842;17.584;2023-08-08T05:39:08;5.75;;;2.78;;
43142;SDS011;28750;59.842;17.584;2023-08-08T05:41:35;3.47;;;2.47;;
43142;SDS011;28750;59.842;17.584;2023-08-08T05:44:02;5.93;;;3.00;;
43142;SDS011;28750;59.842;17.584;2023-08-08T05:46:29;4.38;;;2.88;;
43142;SDS011;28750;59.842;17.584;2023-08-08T05:48:56;5.10;;;2.97;;
43142;SDS011;28750;59.842;17.584;2023-08-08T05:51:23;5.75;;;3.67;;
43142;SDS011;28750;59.842;17.584;2023-08-08T05:53:50;9.90;;;5.20;;
43142;SDS011;28750;59.842;17.584;2023-08-08T05:56:17;5.30;;;4.63;;
43142;SDS011;28750;59.842;17.584;2023-08-08T05:58:44;10.85;;;5.57;;
43142;SDS011;28750;59.842;17.584;2023-08-08T06:01:11;8.52;;;5.18;;
43142;SDS011;28750;59.842;17.584;2023-08-08T06:03:38;11.68;;;6.25;;
43142;SDS011;28750;59.842;17.584;2023-08-08T06:06:06;12.63;;;6.38;;
43142;SDS011;28750;59.842;17.584;2023-08-08T06:08:33;7.40;;;5.75;;
43142;SDS011;28750;59.842;17.584;2023-08-08T06:11:00;6.65;;;5.90;;
43142;SDS011;28750;59.842;17.584;2023-08-08T06:13:27;6.63;;;5.57;;
43142;SDS011;28750;59.842;17.584;2023-08-08T06:15:54;7.63;;;5.80;;
43142;SDS011;28750;59.842;17.584;2023-08-08T06:18:21;9.02;;;6.53;;
43142;SDS011;28750;59.842;17.584;2023-08-08T06:20:48;6.93;;;5.32;;
43142;SDS011;28750;59.842;17.584;2023-08-08T06:23:15;8.02;;;6.07;;
43142;SDS011;28750;59.842;17.584;2023-08-08T06:25:42;4.63;;;3.40;;
43142;SDS011;28750;59.842;17.584;2023-08-08T06:28:09;4.18;;;2.00;;
43142;SDS011;28750;59.842;17.584;2023-08-08T06:30:36;6.13;;;1.83;;
43142;SDS011;28750;59.842;17.584;2023-08-08T06:33:03;4.22;;;1.30;;
43142;SDS011;28750;59.842;17.584;2023-08-08T06:35:30;1.60;;;1.20;;
43142;SDS011;28750;59.842;17.584;2023-08-08T06:37:57;1.70;;;0.60;;
43142;SDS011;28750;59.842;17.584;2023-08-08T06:40:24;2.97;;;1.60;;
43142;SDS011;28750;59.842;17.584;2023-08-08T06:42:52;2.20;;;0.82;;
43142;SDS011;28750;59.842;17.584;2023-08-08T06:45:20;6.72;;;1.00;;
43142;SDS011;28750;59.842;17.584;2023-08-08T06:47:47;4.88;;;0.80;;
43142;SDS011;28750;59.842;17.584;2023-08-08T06:50:15;2.35;;;0.80;;
43142;SDS011;28750;59.842;17.584;2023-08-08T06:52:42;5.75;;;0.50;;
43142;SDS011;28750;59.842;17.584;2023-08-08T06:55:09;2.08;;;0.40;;
43142;SDS011;28750;59.842;17.584;2023-08-08T06:57:36;0.93;;;0.35;;
43142;SDS011;28750;59.842;17.584;2023-08-08T07:00:03;2.47;;;0.35;;
43142;SDS011;28750;59.842;17.584;2023-08-08T07:02:31;0.50;;;0.30;;
43142;SDS011;28750;59.842;17.584;2023-08-08T07:04:58;1.83;;;0.30;;
43142;SDS011;28750;59.842;17.584;2023-08-08T07:07:25;0.32;;;0.32;;
43142;SDS011;28750;59.842;17.584;2023-08-08T07:09:54;0.77;;;0.50;;
43142;SDS011;28750;59.842;17.584;2023-08-08T07:12:21;2.92;;;0.30;;
43142;SDS011;28750;59.842;17.584;2023-08-08T07:14:49;0.40;;;0.15;;
43142;SDS011;28750;59.842;17.584;2023-08-08T07:17:16;2.28;;;0.40;;
43142;SDS011;28750;59.842;17.584;2023-08-08T07:19:43;0.77;;;0.40;;
43142;SDS011;28750;59.842;17.584;2023-08-08T07:22:10;0.30;;;0.30;;
43142;SDS011;28750;59.842;17.584;2023-08-08T07:24:38;1.45;;;0.32;;
43142;SDS011;28750;59.842;17.584;2023-08-08T07:27:05;0.32;;;0.30;;
43142;SDS011;28750;59.842;17.584;2023-08-08T07:29:32;0.17;;;0.17;;
43142;SDS011;28750;59.842;17.584;2023-08-08T07:31:59;1.65;;;0.20;;
43142;SDS011;28750;59.842;17.584;2023-08-08T07:34:30;1.10;;;0.20;;
43142;SDS011;28750;59.842;17.584;2023-08-08T07:36:58;1.65;;;0.73;;
43142;SDS011;28750;59.842;17.584;2023-08-08T07:39:25;2.33;;;0.25;;
43142;SDS011;28750;59.842;17.584;2023-08-08T07:41:52;0.20;;;0.20;;
43142;SDS011;28750;59.842;17.584;2023-08-08T07:44:19;0.63;;;0.20;;
43142;SDS011;28750;59.842;17.584;2023-08-08T07:46:46;2.40;;;0.20;;
43142;SDS011;28750;59.842;17.584;2023-08-08T07:49:14;0.38;;;0.13;;
43142;SDS011;28750;59.842;17.584;2023-08-08T07:51:41;0.30;;;0.20;;
43142;SDS011;28750;59.842;17.584;2023-08-08T07:54:08;0.20;;;0.20;;
43142;SDS011;28750;59.842;17.584;2023-08-08T07:56:36;1.40;;;0.15;;
43142;SDS011;28750;59.842;17.584;2023-08-08T07:59:03;0.28;;;0.28;;
43142;SDS011;28750;59.842;17.584;2023-08-08T08:01:31;0.47;;;0.20;;
43142;SDS011;28750;59.842;17.584;2023-08-08T08:03:58;1.17;;;0.30;;
43142;SDS011;28750;59.842;17.584;2023-08-08T08:06:25;0.20;;;0.10;;
43142;SDS011;28750;59.842;17.584;2023-08-08T08:08:52;0.40;;;0.20;;
43142;SDS011;28750;59.842;17.584;2023-08-08T08:11:19;0.77;;;0.40;;
43142;SDS011;28750;59.842;17.584;2023-08-08T08:13:46;3.63;;;0.30;;
43142;SDS011;28750;59.842;17.584;2023-08-08T08:16:13;1.23;;;0.30;;
43142;SDS011;28750;59.842;17.584;2023-08-08T08:18:40;0.47;;;0.30;;
43142;SDS011;28750;59.842;17.584;2023-08-08T08:21:07;2.22;;;0.40;;
43142;SDS011;28750;59.842;17.584;2023-08-08T08:23:34;0.20;;;0.20;;
43142;SDS011;28750;59.842;17.584;2023-08-08T08:26:01;1.88;;;0.20;;
43142;SDS011;28750;59.842;17.584;2023-08-08T08:28:29;0.40;;;0.30;;
43142;SDS011;28750;59.842;17.584;2023-08-08T08:30:56;1.75;;;0.50;;
43142;SDS011;28750;59.842;17.584;2023-08-08T08:33:23;0.57;;;0.40;;
43142;SDS011;28750;59.842;17.584;2023-08-08T08:35:50;0.70;;;0.38;;
43142;SDS011;28750;59.842;17.584;2023-08-08T08:38:17;0.30;;;0.30;;
43142;SDS011;28750;59.842;17.584;2023-08-08T08:40:44;0.85;;;0.30;;
43142;SDS011;28750;59.842;17.584;2023-08-08T08:43:13;0.25;;;0.25;;
43142;SDS011;28750;59.842;17.584;2023-08-08T08:45:42;0.38;;;0.38;;
43142;SDS011;28750;59.842;17.584;2023-08-08T08:48:15;1.67;;;0.40;;
43142;SDS011;28750;59.842;17.584;2023-08-08T08:50:44;0.30;;;0.30;;
43142;SDS011;28750;59.842;17.584;2023-08-08T08:53:14;0.40;;;0.40;;
43142;SDS011;28750;59.842;17.584;2023-08-08T08:55:42;1.88;;;0.60;;
43142;SDS011;28750;59.842;17.584;2023-08-08T08:58:11;0.40;;;0.40;;
43142;SDS011;28750;59.842;17.584;2023-08-08T09:00:41;0.50;;;0.50;;
43142;SDS011;28750;59.842;17.584;2023-08-08T09:03:13;0.70;;;0.50;;
43142;SDS011;28750;59.842;17.584;2023-08-08T09:05:40;5.75;;;1.05;;
43142;SDS011;28750;59.842;17.584;2023-08-08T09:08:10;2.05;;;0.50;;
43142;SDS011;28750;59.842;17.584;2023-08-08T09:10:38;3.03;;;0.75;;
43142;SDS011;28750;59.842;17.584;2023-08-08T09:13:05;0.60;;;0.60;;
43142;SDS011;28750;59.842;17.584;2023-08-08T09:15:33;4.35;;;0.55;;
43142;SDS011;28750;59.842;17.584;2023-08-08T09:18:01;0.55;;;0.55;;
43142;SDS011;28750;59.842;17.584;2023-08-08T09:20:28;0.63;;;0.63;;
43142;SDS011;28750;59.842;17.584;2023-08-08T09:22:56;0.57;;;0.57;;
43142;SDS011;28750;59.842;17.584;2023-08-08T09:25:24;1.60;;;0.60;;
43142;SDS011;28750;59.842;17.584;2023-08-08T09:27:52;1.67;;;0.70;;
43142;SDS011;28750;59.842;17.584;2023-08-08T09:30:19;2.88;;;0.80;;
43142;SDS011;28750;59.842;17.584;2023-08-08T09:32:47;0.50;;;0.50;;
43142;SDS011;28750;59.842;17.584;2023-08-08T09:35:15;0.60;;;0.60;;
43142;SDS011;28750;59.842;17.584;2023-08-08T09:37:42;1.42;;;0.82;;
43142;SDS011;28750;59.842;17.584;2023-08-08T09:40:10;3.22;;;0.95;;
43142;SDS011;28750;59.842;17.584;2023-08-08T09:42:37;0.70;;;0.70;;
43142;SDS011;28750;59.842;17.584;2023-08-08T09:45:07;0.70;;;0.70;;
43142;SDS011;28750;59.842;17.584;2023-08-08T09:47:35;0.80;;;0.80;;
43142;SDS011;28750;59.842;17.584;2023-08-08T09:50:04;2.60;;;0.80;;
43142;SDS011;28750;59.842;17.584;2023-08-08T09:52:35;0.80;;;0.80;;
43142;SDS011;28750;59.842;17.584;2023-08-08T09:55:04;0.90;;;0.82;;
43142;SDS011;28750;59.842;17.584;2023-08-08T09:57:32;1.27;;;1.27;;
43142;SDS011;28750;59.842;17.584;2023-08-08T09:59:59;4.75;;;1.08;;
43142;SDS011;28750;59.842;17.584;2023-08-08T10:02:30;2.25;;;1.00;;
43142;SDS011;28750;59.842;17.584;2023-08-08T10:04:57;0.77;;;0.77;;
43142;SDS011;28750;59.842;17.584;2023-08-08T10:07:25;1.75;;;1.02;;
43142;SDS011;28750;59.842;17.584;2023-08-08T10:09:53;1.95;;;0.80;;
43142;SDS011;28750;59.842;17.584;2023-08-08T10:12:21;0.50;;;0.50;;
43142;SDS011;28750;59.842;17.584;2023-08-08T10:14:52;1.20;;;0.55;;
43142;SDS011;28750;59.842;17.584;2023-08-08T10:17:19;2.10;;;0.70;;
43142;SDS011;28750;59.842;17.584;2023-08-08T10:19:50;3.28;;;0.70;;
43142;SDS011;28750;59.842;17.584;2023-08-08T10:22:20;0.50;;;0.50;;
43142;SDS011;28750;59.842;17.584;2023-08-08T10:24:50;0.50;;;0.50;;
43142;SDS011;28750;59.842;17.584;2023-08-08T10:27:28;0.60;;;0.60;;
43142;SDS011;28750;59.842;17.584;2023-08-08T10:30:03;0.73;;;0.73;;
43142;SDS011;28750;59.842;17.584;2023-08-08T10:32:38;0.52;;;0.52;;
43142;SDS011;28750;59.842;17.584;2023-08-08T10:35:11;0.95;;;0.60;;
43142;SDS011;28750;59.842;17.584;2023-08-08T10:37:39;1.45;;;0.70;;
43142;SDS011;28750;59.842;17.584;2023-08-08T10:40:18;0.60;;;0.60;;
43142;SDS011;28750;59.842;17.584;2023-08-08T10:42:46;0.70;;;0.70;;
43142;SDS011;28750;59.842;17.584;2023-08-08T10:45:14;0.70;;;0.70;;
43142;SDS011;28750;59.842;17.584;2023-08-08T10:47:42;2.53;;;0.80;;
43142;SDS011;28750;59.842;17.584;2023-08-08T10:50:14;1.08;;;0.95;;
43142;SDS011;28750;59.842;17.584;2023-08-08T10:55:25;2.85;;;0.95;;
43142;SDS011;28750;59.842;17.584;2023-08-08T10:58:02;0.75;;;0.75;;
43142;SDS011;28750;59.842;17.584;2023-08-08T11:00:38;2.50;;;0.90;;
43142;SDS011;28750;59.842;17.584;2023-08-08T11:03:06;0.93;;;0.93;;
43142;SDS011;28750;59.842;17.584;2023-08-08T11:05:35;0.80;;;0.80;;
43142;SDS011;28750;59.842;17.584;2023-08-08T11:08:04;0.73;;;0.73;;
43142;SDS011;28750;59.842;17.584;2023-08-08T11:10:36;1.05;;;0.95;;
43142;SDS011;28750;59.842;17.584;2023-08-08T11:13:07;2.25;;;1.00;;
43142;SDS011;28750;59.842;17.584;2023-08-08T11:15:35;1.20;;;1.02;;
43142;SDS011;28750;59.842;17.584;2023-08-08T11:18:03;1.15;;;1.15;;
43142;SDS011;28750;59.842;17.584;2023-08-08T11:20:31;2.13;;;1.20;;
43142;SDS011;28750;59.842;17.584;2023-08-08T11:23:00;1.25;;;1.20;;
43142;SDS011;28750;59.842;17.584;2023-08-08T11:25:29;1.70;;;1.23;;
43142;SDS011;28750;59.842;17.584;2023-08-08T11:27:57;2.20;;;1.20;;
43142;SDS011;28750;59.842;17.584;2023-08-08T11:30:28;0.80;;;0.80;;
43142;SDS011;28750;59.842;17.584;2023-08-08T11:32:56;2.25;;;1.23;;
43142;SDS011;28750;59.842;17.584;2023-08-08T11:35:24;1.15;;;1.02;;
43142;SDS011;28750;59.842;17.584;2023-08-08T11:37:53;1.00;;;1.00;;
43142;SDS011;28750;59.842;17.584;2023-08-08T11:40:22;1.00;;;1.00;;
43142;SDS011;28750;59.842;17.584;2023-08-08T11:42:52;0.98;;;0.90;;
43142;SDS011;28750;59.842;17.584;2023-08-08T11:45:20;0.82;;;0.82;;
43142;SDS011;28750;59.842;17.584;2023-08-08T11:47:51;1.35;;;1.25;;
43142;SDS011;28750;59.842;17.584;2023-08-08T11:50:20;1.30;;;0.98;;
43142;SDS011;28750;59.842;17.584;2023-08-08T11:52:50;1.90;;;0.73;;
43142;SDS011;28750;59.842;17.584;2023-08-08T11:55:18;1.00;;;0.95;;
43142;SDS011;28750;59.842;17.584;2023-08-08T11:57:49;2.42;;;0.93;;
43142;SDS011;28750;59.842;17.584;2023-08-08T12:00:18;2.45;;;0.73;;
43142;SDS011;28750;59.842;17.584;2023-08-08T12:02:45;3.38;;;1.00;;
43142;SDS011;28750;59.842;17.584;2023-08-08T12:05:13;0.82;;;0.82;;
43142;SDS011;28750;59.842;17.584;2023-08-08T12:07:42;1.23;;;1.00;;
43142;SDS011;28750;59.842;17.584;2023-08-08T12:10:17;0.80;;;0.80;;
43142;SDS011;28750;59.842;17.584;2023-08-08T12:12:52;3.47;;;1.08;;
43142;SDS011;28750;59.842;17.584;2023-08-08T12:15:22;2.67;;;1.00;;
43142;SDS011;28750;59.842;17.584;2023-08-08T12:17:50;5.43;;;0.88;;
43142;SDS011;28750;59.842;17.584;2023-08-08T12:20:17;1.30;;;0.80;;
43142;SDS011;28750;59.842;17.584;2023-08-08T12:22:45;0.80;;;0.80;;
43142;SDS011;28750;59.842;17.584;2023-08-08T12:25:12;0.80;;;0.80;;
43142;SDS011;28750;59.842;17.584;2023-08-08T12:27:40;0.80;;;0.73;;
43142;SDS011;28750;59.842;17.584;2023-08-08T12:30:07;0.70;;;0.70;;
43142;SDS011;28750;59.842;17.584;2023-08-08T12:32:34;1.00;;;0.70;;
43142;SDS011;28750;59.842;17.584;2023-08-08T12:35:02;1.67;;;0.60;;
43142;SDS011;28750;59.842;17.584;2023-08-08T12:37:29;1.60;;;0.90;;
43142;SDS011;28750;59.842;17.584;2023-08-08T12:39:56;0.73;;;0.70;;
43142;SDS011;28750;59.842;17.584;2023-08-08T12:42:23;1.67;;;0.60;;
43142;SDS011;28750;59.842;17.584;2023-08-08T12:44:53;0.50;;;0.50;;
43142;SDS011;28750;59.842;17.584;2023-08-08T12:47:20;3.83;;;0.60;;
43142;SDS011;28750;59.842;17.584;2023-08-08T12:49:47;1.42;;;0.70;;
43142;SDS011;28750;59.842;17.584;2023-08-08T12:52:14;1.20;;;0.88;;
43142;SDS011;28750;59.842;17.584;2023-08-08T12:54:42;0.85;;;0.85;;
43142;SDS011;28750;59.842;17.584;2023-08-08T12:57:09;1.25;;;1.10;;
43142;SDS011;28750;59.842;17.584;2023-08-08T12:59:36;2.28;;;0.90;;
43142;SDS011;28750;59.842;17.584;2023-08-08T13:02:04;4.05;;;1.15;;
43142;SDS011;28750;59.842;17.584;2023-08-08T13:04:31;1.75;;;1.25;;
43142;SDS011;28750;59.842;17.584;2023-08-08T13:06:58;2.53;;;0.98;;
43142;SDS011;28750;59.842;17.584;2023-08-08T13:09:25;1.38;;;0.82;;
43142;SDS011;28750;59.842;17.584;2023-08-08T13:11:52;2.03;;;0.90;;
43142;SDS011;28750;59.842;17.584;2023-08-08T13:14:19;2.55;;;0.77;;
43142;SDS011;28750;59.842;17.584;2023-08-08T13:16:47;1.63;;;1.02;;
43142;SDS011;28750;59.842;17.584;2023-08-08T13:19:15;1.90;;;0.90;;
43142;SDS011;28750;59.842;17.584;2023-08-08T13:21:45;0.95;;;0.82;;
43142;SDS011;28750;59.842;17.584;2023-08-08T13:24:12;2.00;;;1.10;;
43142;SDS011;28750;59.842;17.584;2023-08-08T13:26:39;0.80;;;0.80;;
43142;SDS011;28750;59.842;17.584;2023-08-08T13:29:07;2.60;;;0.80;;
43142;SDS011;28750;59.842;17.584;2023-08-08T13:31:34;6.55;;;0.90;;
43142;SDS011;28750;59.842;17.584;2023-08-08T13:34:01;2.50;;;1.60;;
43142;SDS011;28750;59.842;17.584;2023-08-08T13:36:29;4.82;;;0.88;;
43142;SDS011;28750;59.842;17.584;2023-08-08T13:38:56;2.08;;;0.80;;
43142;SDS011;28750;59.842;17.584;2023-08-08T13:41:23;1.15;;;0.90;;
43142;SDS011;28750;59.842;17.584;2023-08-08T13:43:50;2.63;;;0.90;;
43142;SDS011;28750;59.842;17.584;2023-08-08T13:46:18;2.67;;;1.17;;
43142;SDS011;28750;59.842;17.584;2023-08-08T13:48:45;1.80;;;1.35;;
43142;SDS011;28750;59.842;17.584;2023-08-08T13:51:12;0.70;;;0.70;;
43142;SDS011;28750;59.842;17.584;2023-08-08T13:53:39;1.70;;;0.80;;
43142;SDS011;28750;59.842;17.584;2023-08-08T13:56:06;2.53;;;1.77;;
43142;SDS011;28750;59.842;17.584;2023-08-08T13:58:33;3.47;;;0.68;;
43142;SDS011;28750;59.842;17.584;2023-08-08T14:01:00;3.05;;;1.00;;
43142;SDS011;28750;59.842;17.584;2023-08-08T14:03:27;2.08;;;0.80;;
43142;SDS011;28750;59.842;17.584;2023-08-08T14:05:54;1.90;;;0.80;;
43142;SDS011;28750;59.842;17.584;2023-08-08T14:08:22;2.25;;;0.93;;
43142;SDS011;28750;59.842;17.584;2023-08-08T14:10:50;3.60;;;0.80;;
43142;SDS011;28750;59.842;17.584;2023-08-08T14:13:17;1.58;;;0.70;;
43142;SDS011;28750;59.842;17.584;2023-08-08T14:15:44;2.63;;;0.90;;
43142;SDS011;28750;59.842;17.584;2023-08-08T14:18:12;2.70;;;1.05;;
43142;SDS011;28750;59.842;17.584;2023-08-08T14:20:39;2.67;;;0.90;;
43142;SDS011;28750;59.842;17.584;2023-08-08T14:23:06;4.07;;;1.15;;
43142;SDS011;28750;59.842;17.584;2023-08-08T14:25:33;0.82;;;0.80;;
43142;SDS011;28750;59.842;17.584;2023-08-08T14:28:00;2.15;;;0.80;;
43142;SDS011;28750;59.842;17.584;2023-08-08T14:30:29;2.60;;;0.80;;
43142;SDS011;28750;59.842;17.584;2023-08-08T14:32:56;3.97;;;1.00;;
43142;SDS011;28750;59.842;17.584;2023-08-08T14:35:23;3.08;;;0.75;;
43142;SDS011;28750;59.842;17.584;2023-08-08T14:37:53;4.78;;;1.00;;
43142;SDS011;28750;59.842;17.584;2023-08-08T14:40:20;3.03;;;0.88;;
43142;SDS011;28750;59.842;17.584;2023-08-08T14:42:47;1.90;;;1.10;;